Time;durP1;ratioP1;P1;durP2;ratioP2;P2;SDS_P1;SDS_P2;PMS_P1;PMS_P2;Temp;Humidity;BMP_temperature;BMP_pressure;BME280_temperature;BME280_humidity;BME280_pressure;Samples;Min_cycle;Max_cycle;Signal;HPM_P1;HPM_P2
2022/07/19 00:01:38;;;;;;;4.75;2.40;;;19.80;69.30;;;;;;5116539;28;20031;-65
2022/07/19 00:04:04;;;;;;;5.30;2.33;;;19.80;70.00;;;;;;5114464;28;20036;-65
2022/07/19 00:06:29;;;;;;;5.63;2.42;;;19.80;69.30;;;;;;5114200;28;20031;-65
2022/07/19 00:08:56;;;;;;;6.10;2.50;;;19.80;69.00;;;;;;5116296;28;20023;-65
2022/07/19 00:11:22;;;;;;;6.93;2.45;;;19.90;68.80;;;;;;5112930;27;20035;-66
2022/07/19 00:13:47;;;;;;;4.32;2.40;;;19.90;69.10;;;;;;5119237;27;20372;-65
2022/07/19 00:16:16;;;;;;;4.90;2.33;;;19.90;69.20;;;;;;5115240;28;20023;-66
2022/07/19 00:18:42;;;;;;;5.80;2.25;;;19.80;69.30;;;;;;5114778;27;20019;-65
2022/07/19 00:21:07;;;;;;;5.10;2.70;;;19.80;69.70;;;;;;5114479;28;20413;-65
2022/07/19 00:23:33;;;;;;;5.97;2.53;;;19.90;69.10;;;;;;5116241;28;20027;-65
2022/07/19 00:26:00;;;;;;;5.10;2.17;;;19.80;69.00;;;;;;5114908;27;20019;-65
2022/07/19 00:28:26;;;;;;;6.78;2.55;;;19.90;69.50;;;;;;5115394;28;20027;-65
2022/07/19 00:30:51;;;;;;;5.35;2.65;;;19.80;70.10;;;;;;5115088;28;20080;-65
2022/07/19 00:33:17;;;;;;;6.93;2.47;;;19.70;70.10;;;;;;5115964;28;20110;-65
2022/07/19 00:35:43;;;;;;;8.02;2.65;;;19.60;70.70;;;;;;5111562;28;20093;-65
2022/07/19 00:38:12;;;;;;;5.57;2.50;;;19.60;70.20;;;;;;5109221;28;20080;-66
2022/07/19 00:40:40;;;;;;;3.90;2.38;;;19.50;71.10;;;;;;5113872;28;20027;-65
2022/07/19 00:43:12;;;;;;;5.38;2.42;;;19.40;71.20;;;;;;5115987;28;20035;-65
2022/07/19 00:45:38;;;;;;;5.20;2.65;;;19.40;71.20;;;;;;5115025;28;20418;-66
2022/07/19 00:48:05;;;;;;;5.95;2.47;;;19.40;71.10;;;;;;5115976;28;20047;-65
2022/07/19 00:50:31;;;;;;;5.80;2.67;;;19.30;71.50;;;;;;5112831;28;20032;-65
2022/07/19 00:53:00;;;;;;;4.75;2.25;;;19.30;71.30;;;;;;5114872;28;20024;-65
2022/07/19 00:55:28;;;;;;;4.95;2.50;;;19.50;70.70;;;;;;5114628;28;20115;-66
2022/07/19 00:57:56;;;;;;;5.30;3.05;;;19.60;70.40;;;;;;5115965;28;20483;-65
2022/07/19 01:00:22;;;;;;;5.03;2.50;;;19.80;69.10;;;;;;5114979;28;20489;-65
2022/07/19 01:02:47;;;;;;;6.78;2.42;;;19.90;69.10;;;;;;5116024;28;20061;-65
2022/07/19 01:05:13;;;;;;;6.75;2.50;;;19.90;69.10;;;;;;5117813;28;20024;-65
2022/07/19 01:07:42;;;;;;;5.78;2.22;;;19.80;69.60;;;;;;5120044;28;20430;-65
2022/07/19 01:10:13;;;;;;;6.60;2.35;;;19.80;69.40;;;;;;5117744;28;20395;-65
2022/07/19 01:12:42;;;;;;;6.15;2.70;;;19.70;70.00;;;;;;5119688;28;20120;-65
2022/07/19 01:15:19;;;;;;;6.60;2.60;;;19.60;70.80;;;;;;5116636;28;20032;-66
2022/07/19 01:17:46;;;;;;;5.18;2.53;;;19.40;71.50;;;;;;5118609;28;20040;-65
2022/07/19 01:20:11;;;;;;;5.22;2.38;;;19.40;70.90;;;;;;5117866;28;20294;-65
2022/07/19 01:22:37;;;;;;;6.38;2.40;;;19.40;70.90;;;;;;5118647;28;20032;-65
2022/07/19 01:25:04;;;;;;;3.88;2.17;;;19.50;70.00;;;;;;5118681;28;20019;-65
2022/07/19 01:27:30;;;;;;;5.03;2.40;;;19.70;69.40;;;;;;5118647;28;20162;-64
2022/07/19 01:29:56;;;;;;;4.85;2.35;;;19.80;69.30;;;;;;5119415;28;20472;-65
2022/07/19 01:32:22;;;;;;;6.10;2.58;;;19.70;70.50;;;;;;5119642;28;20027;-65
2022/07/19 01:34:47;;;;;;;7.35;2.17;;;19.50;71.20;;;;;;5115232;28;20028;-66
2022/07/19 01:37:13;;;;;;;7.10;2.53;;;19.30;71.20;;;;;;5112978;28;20020;-65
2022/07/19 01:39:39;;;;;;;4.63;2.58;;;19.10;72.30;;;;;;5116975;28;20031;-64
2022/07/19 01:42:07;;;;;;;4.95;2.75;;;19.00;72.90;;;;;;5115008;28;20447;-64
2022/07/19 01:44:32;;;;;;;4.80;2.63;;;18.90;73.50;;;;;;5115171;28;20019;-65
2022/07/19 01:46:58;;;;;;;5.38;2.67;;;18.60;74.10;;;;;;5118185;28;20492;-64
2022/07/19 01:49:24;;;;;;;7.75;2.90;;;18.50;74.70;;;;;;5114021;28;20028;-65
2022/07/19 01:51:49;;;;;;;7.43;2.67;;;18.40;74.90;;;;;;5109064;27;20024;-65
2022/07/19 01:54:15;;;;;;;7.78;2.50;;;18.20;75.60;;;;;;5116786;27;20038;-66
2022/07/19 01:56:44;;;;;;;5.38;2.50;;;18.10;76.00;;;;;;5113448;27;20032;-64
2022/07/19 01:59:09;;;;;;;4.50;2.35;;;18.00;76.60;;;;;;5113148;28;20031;-64
2022/07/19 02:01:35;;;;;;;6.50;2.70;;;17.80;77.00;;;;;;5112529;28;20164;-66
2022/07/19 02:04:01;;;;;;;5.40;2.53;;;17.70;77.20;;;;;;5118135;28;20042;-65
2022/07/19 02:06:26;;;;;;;5.05;2.55;;;17.60;77.70;;;;;;5116503;28;20024;-64
2022/07/19 02:08:52;;;;;;;8.32;3.03;;;17.50;78.00;;;;;;5114341;28;20020;-64
2022/07/19 02:11:36;;;;;;;5.50;2.88;;;17.50;77.80;;;;;;5116467;27;20359;-64
2022/07/19 02:14:07;;;;;;;6.50;2.83;;;17.50;77.80;;;;;;5116220;27;20028;-65
2022/07/19 02:16:33;;;;;;;6.13;2.80;;;17.60;77.50;;;;;;5114810;28;20032;-65
2022/07/19 02:18:59;;;;;;;7.32;3.33;;;17.60;77.30;;;;;;5114999;27;20108;-65
2022/07/19 02:21:24;;;;;;;5.07;2.60;;;17.70;76.90;;;;;;5106983;27;20069;-65
2022/07/19 02:23:50;;;;;;;7.30;2.97;;;17.70;76.70;;;;;;5118510;27;20472;-64
2022/07/19 02:26:16;;;;;;;7.15;2.90;;;17.80;76.50;;;;;;5110757;27;20417;-65
2022/07/19 02:28:41;;;;;;;5.43;2.58;;;17.70;76.60;;;;;;5116169;27;20320;-64
2022/07/19 02:31:07;;;;;;;10.13;2.72;;;17.60;76.90;;;;;;5115443;27;20324;-65
2022/07/19 02:33:32;;;;;;;7.03;3.13;;;17.50;77.50;;;;;;5116593;28;20073;-64
2022/07/19 02:35:58;;;;;;;6.68;2.88;;;17.50;77.70;;;;;;5116075;27;20031;-65
2022/07/19 02:38:24;;;;;;;5.85;2.67;;;17.50;77.70;;;;;;5116404;28;20099;-65
2022/07/19 02:40:52;;;;;;;4.90;2.70;;;17.50;77.70;;;;;;5114144;28;20497;-64
2022/07/19 02:43:18;;;;;;;5.28;2.97;;;17.40;77.80;;;;;;5114111;27;20034;-63
2022/07/19 02:45:44;;;;;;;7.45;3.03;;;17.40;77.90;;;;;;5114207;27;20102;-64
2022/07/19 02:48:09;;;;;;;9.27;3.35;;;17.30;77.90;;;;;;5113732;27;20043;-63
2022/07/19 02:50:35;;;;;;;6.03;3.20;;;17.20;78.40;;;;;;5114358;28;20024;-65
2022/07/19 02:53:01;;;;;;;5.03;2.95;;;17.10;78.80;;;;;;5116243;28;20023;-63
2022/07/19 02:55:27;;;;;;;7.50;3.58;;;17.00;79.30;;;;;;5111869;27;20035;-66
2022/07/19 02:57:53;;;;;;;5.85;2.95;;;16.90;79.50;;;;;;5119047;27;20027;-64
2022/07/19 03:00:19;;;;;;;5.63;2.85;;;17.00;79.50;;;;;;5109586;28;20070;-64
2022/07/19 03:02:45;;;;;;;5.40;2.90;;;17.10;79.20;;;;;;5108730;28;20028;-65
2022/07/19 03:05:11;;;;;;;8.02;3.08;;;17.10;79.40;;;;;;5115191;27;20061;-65
2022/07/19 03:07:36;;;;;;;6.95;3.17;;;17.20;78.70;;;;;;5114575;27;20027;-64
2022/07/19 03:10:03;;;;;;;5.80;2.80;;;17.20;78.40;;;;;;5110951;27;20372;-65
2022/07/19 03:12:28;;;;;;;6.00;3.00;;;17.10;78.80;;;;;;5115183;28;20046;-64
2022/07/19 03:14:54;;;;;;;7.47;3.63;;;17.00;79.10;;;;;;5113384;27;20029;-64
2022/07/19 03:17:20;;;;;;;4.63;3.00;;;16.90;79.60;;;;;;5114141;27;20031;-65
2022/07/19 03:19:46;;;;;;;4.93;2.72;;;16.90;79.90;;;;;;5112841;28;20111;-64
2022/07/19 03:22:12;;;;;;;5.18;2.65;;;16.90;79.80;;;;;;5115057;28;20114;-64
2022/07/19 03:24:38;;;;;;;6.38;2.88;;;16.90;80.10;;;;;;5113061;28;20027;-65
2022/07/19 03:27:03;;;;;;;5.57;2.88;;;16.90;80.40;;;;;;5106680;28;20417;-65
2022/07/19 03:29:29;;;;;;;6.13;2.78;;;16.80;80.00;;;;;;5109894;28;20404;-65
2022/07/19 03:32:00;;;;;;;6.80;2.55;;;16.80;80.40;;;;;;5113825;28;20383;-64
2022/07/19 03:34:28;;;;;;;6.18;3.05;;;16.80;80.20;;;;;;5113651;28;20031;-64
2022/07/19 03:36:54;;;;;;;6.38;2.70;;;16.80;80.30;;;;;;5113978;28;20309;-65
2022/07/19 03:39:20;;;;;;;5.60;2.65;;;16.90;80.00;;;;;;5114740;28;20051;-64
2022/07/19 03:41:46;;;;;;;5.13;2.75;;;17.00;79.90;;;;;;5114406;28;20066;-64
2022/07/19 03:44:11;;;;;;;6.78;3.17;;;17.00;79.70;;;;;;5114077;28;20032;-64
2022/07/19 03:46:37;;;;;;;7.25;2.97;;;17.10;79.40;;;;;;5111291;28;20448;-64
2022/07/19 03:49:03;;;;;;;5.93;2.63;;;17.20;78.40;;;;;;5113228;28;20024;-64
2022/07/19 03:51:28;;;;;;;5.22;2.70;;;17.30;78.30;;;;;;5112448;27;20050;-64
2022/07/19 03:53:54;;;;;;;9.18;2.20;;;17.20;78.20;;;;;;5114382;28;20088;-64
2022/07/19 03:56:20;;;;;;;6.25;2.45;;;17.50;76.70;;;;;;5111604;28;20464;-64
2022/07/19 03:58:49;;;;;;;5.35;2.58;;;18.00;74.40;;;;;;5112778;28;20443;-64
2022/07/19 04:01:15;;;;;;;4.57;2.30;;;18.70;71.40;;;;;;5111736;28;20062;-65
2022/07/19 04:03:42;;;;;;;5.65;2.35;;;19.20;70.10;;;;;;5108412;28;20039;-65
2022/07/19 04:06:10;;;;;;;5.95;2.28;;;19.50;68.90;;;;;;5112691;28;20034;-65
2022/07/19 04:08:36;;;;;;;4.85;2.28;;;19.90;67.80;;;;;;5115385;27;20038;-65
2022/07/19 04:11:03;;;;;;;5.25;2.35;;;20.10;67.00;;;;;;5108164;28;20024;-64
2022/07/19 04:13:31;;;;;;;6.47;2.10;;;20.20;66.60;;;;;;5115677;28;20042;-64
2022/07/19 04:15:57;;;;;;;4.32;2.30;;;20.30;66.70;;;;;;5109687;28;20028;-65
2022/07/19 04:18:22;;;;;;;8.00;2.65;;;20.40;66.20;;;;;;5108974;28;20365;-65
2022/07/19 04:20:48;;;;;;;6.13;2.40;;;20.50;65.90;;;;;;5112123;27;20024;-64
2022/07/19 04:23:14;;;;;;;4.78;2.22;;;20.50;66.10;;;;;;5112892;27;20031;-64
2022/07/19 04:25:39;;;;;;;9.30;2.40;;;20.50;65.90;;;;;;5114938;28;20095;-63
2022/07/19 04:28:07;;;;;;;4.85;2.05;;;20.50;66.00;;;;;;5115086;27;20058;-64
2022/07/19 04:30:33;;;;;;;4.95;2.20;;;20.50;66.00;;;;;;5113223;28;20024;-64
2022/07/19 04:32:58;;;;;;;6.57;2.22;;;20.50;65.80;;;;;;5111472;28;20473;-64
2022/07/19 04:35:24;;;;;;;6.55;2.20;;;20.60;65.40;;;;;;5110127;28;20961;-65
2022/07/19 04:37:50;;;;;;;6.07;2.20;;;20.70;65.00;;;;;;5119353;27;20467;-64
2022/07/19 04:40:15;;;;;;;6.47;2.10;;;20.80;64.90;;;;;;5117155;27;20055;-64
2022/07/19 04:42:41;;;;;;;5.90;2.40;;;20.90;64.00;;;;;;5119688;27;20023;-64
2022/07/19 04:45:07;;;;;;;5.25;2.30;;;21.00;64.30;;;;;;5126083;27;20055;-64
2022/07/19 04:47:40;;;;;;;4.70;2.20;;;21.00;63.90;;;;;;5117671;27;20051;-64
2022/07/19 04:50:06;;;;;;;8.52;2.13;;;21.00;64.20;;;;;;5107059;28;20442;-65
2022/07/19 04:52:31;;;;;;;8.65;2.47;;;21.00;63.80;;;;;;5116181;27;20412;-64
2022/07/19 04:54:57;;;;;;;5.72;2.40;;;21.00;63.50;;;;;;5122463;27;20077;-63
2022/07/19 04:57:23;;;;;;;6.53;2.00;;;21.10;63.20;;;;;;5120162;27;20077;-63
2022/07/19 04:59:49;;;;;;;7.05;2.05;;;21.10;62.90;;;;;;5116801;27;20471;-63
2022/07/19 05:02:15;;;;;;;5.80;1.90;;;21.10;63.00;;;;;;5122599;27;20118;-63
2022/07/19 05:04:40;;;;;;;5.35;2.35;;;21.20;62.70;;;;;;5117648;27;20475;-63
2022/07/19 05:07:06;;;;;;;8.98;1.95;;;21.30;61.90;;;;;;5124215;27;20032;-64
2022/07/19 05:09:32;;;;;;;4.80;1.90;;;21.40;61.50;;;;;;5122971;27;20462;-63
2022/07/19 05:11:57;;;;;;;5.25;2.00;;;21.50;61.40;;;;;;5119464;27;20333;-64
2022/07/19 05:14:23;;;;;;;4.55;1.80;;;21.50;61.40;;;;;;5123334;27;20370;-65
2022/07/19 05:16:49;;;;;;;5.57;2.03;;;21.50;61.60;;;;;;5116829;27;20035;-64
2022/07/19 05:19:16;;;;;;;5.15;1.90;;;21.50;61.60;;;;;;5119948;27;20361;-64
2022/07/19 05:21:42;;;;;;;3.60;2.00;;;21.50;61.40;;;;;;5116828;27;20046;-65
2022/07/19 05:24:07;;;;;;;6.13;2.40;;;21.60;61.60;;;;;;5116673;27;20385;-64
2022/07/19 05:26:33;;;;;;;4.20;1.88;;;21.60;61.50;;;;;;5113425;27;20020;-65
2022/07/19 05:29:00;;;;;;;7.05;2.10;;;21.70;60.80;;;;;;5117403;27;20293;-64
2022/07/19 05:31:26;;;;;;;3.85;1.90;;;21.90;60.60;;;;;;5113366;27;20242;-65
2022/07/19 05:33:51;;;;;;;4.20;1.95;;;22.00;60.50;;;;;;5116758;27;20043;-64
2022/07/19 05:36:17;;;;;;;7.05;2.03;;;22.10;60.60;;;;;;5118081;27;20031;-65
2022/07/19 05:38:43;;;;;;;4.22;2.00;;;22.10;60.50;;;;;;5120044;27;20027;-64
2022/07/19 05:41:10;;;;;;;5.07;1.90;;;22.20;60.50;;;;;;5119647;27;20027;-64
2022/07/19 05:43:37;;;;;;;4.88;2.05;;;22.30;60.60;;;;;;5115763;27;20147;-63
2022/07/19 05:46:04;;;;;;;5.60;2.22;;;22.40;60.50;;;;;;5111899;28;20059;-64
2022/07/19 05:48:29;;;;;;;6.03;2.10;;;22.50;60.50;;;;;;5125338;27;20027;-64
2022/07/19 05:50:56;;;;;;;2.67;1.50;;;22.60;60.20;;;;;;5112717;27;20023;-66
2022/07/19 05:53:21;;;;;;;4.88;2.20;;;22.60;60.50;;;;;;5114570;28;20039;-65
2022/07/19 05:55:47;;;;;;;6.05;2.25;;;22.80;59.70;;;;;;5112046;27;20060;-65
2022/07/19 05:58:13;;;;;;;4.03;1.75;;;22.90;59.50;;;;;;5119285;27;20032;-64
2022/07/19 06:01:17;;;;;;;6.55;2.10;;;23.00;59.50;;;;;;5117313;27;20031;-63
2022/07/19 06:03:24;;;;;;;6.97;1.95;;;23.10;59.30;;;;;;5114300;28;20039;-65
2022/07/19 06:05:50;;;;;;;4.60;1.90;;;23.30;59.30;;;;;;5120934;27;20117;-65
2022/07/19 06:08:15;;;;;;;4.75;1.65;;;23.30;59.50;;;;;;5121365;27;20176;-64
2022/07/19 06:10:41;;;;;;;6.95;1.70;;;23.40;59.40;;;;;;5117799;27;20032;-65
2022/07/19 06:13:07;;;;;;;8.60;1.83;;;23.50;59.50;;;;;;5113356;27;20023;-70
2022/07/19 06:15:34;;;;;;;7.10;1.70;;;23.60;58.90;;;;;;5114018;28;20630;-69
2022/07/19 06:18:00;;;;;;;7.10;2.15;;;23.70;59.40;;;;;;5108978;28;20119;-64
2022/07/19 06:20:26;;;;;;;5.30;2.17;;;23.70;59.00;;;;;;5108014;27;20429;-64
2022/07/19 06:22:51;;;;;;;3.95;1.80;;;23.80;58.20;;;;;;5113037;27;20110;-64
2022/07/19 06:25:17;;;;;;;4.18;2.10;;;23.80;59.20;;;;;;5113750;27;20031;-64
2022/07/19 06:27:42;;;;;;;3.78;2.00;;;23.90;58.90;;;;;;5110074;27;20317;-64
2022/07/19 06:30:08;;;;;;;5.60;1.92;;;23.90;57.50;;;;;;5120606;27;20028;-64
2022/07/19 06:32:34;;;;;;;4.45;2.10;;;24.10;57.60;;;;;;5115819;27;20031;-64
2022/07/19 06:35:00;;;;;;;4.57;1.88;;;24.20;58.20;;;;;;5113692;27;20034;-65
2022/07/19 06:37:25;;;;;;;3.63;1.90;;;24.30;56.60;;;;;;5122578;27;20628;-65
2022/07/19 06:39:51;;;;;;;4.70;1.88;;;24.40;56.60;;;;;;5115983;27;20417;-64
2022/07/19 06:42:16;;;;;;;5.57;1.85;;;24.60;56.60;;;;;;5111145;27;20108;-65
2022/07/19 06:44:42;;;;;;;3.83;1.83;;;24.70;56.40;;;;;;5115253;27;20409;-64
2022/07/19 06:47:08;;;;;;;5.53;1.80;;;24.90;56.10;;;;;;5118930;27;20039;-65
2022/07/19 06:49:36;;;;;;;3.75;1.60;;;25.00;55.70;;;;;;5114780;27;20047;-64
2022/07/19 06:52:02;;;;;;;9.93;2.53;;;25.10;55.10;;;;;;5111935;27;20051;-65
2022/07/19 06:54:28;;;;;;;4.88;1.83;;;25.20;54.60;;;;;;5108491;27;20024;-65
2022/07/19 06:56:54;;;;;;;5.93;2.00;;;25.40;54.50;;;;;;5117386;27;20023;-65
2022/07/19 06:59:19;;;;;;;6.05;1.83;;;25.40;54.80;;;;;;5122712;27;20024;-64
2022/07/19 07:01:45;;;;;;;4.32;1.73;;;25.50;54.30;;;;;;5111169;27;20031;-65
2022/07/19 07:04:11;;;;;;;4.35;1.67;;;25.60;54.20;;;;;;5117864;28;20023;-65
2022/07/19 07:06:36;;;;;;;6.50;1.90;;;25.70;53.60;;;;;;5116812;27;20077;-64
2022/07/19 07:09:02;;;;;;;9.50;2.22;;;25.80;53.40;;;;;;5119825;27;20073;-64
2022/07/19 07:11:28;;;;;;;4.63;2.00;;;25.90;53.90;;;;;;5111515;27;20111;-64
2022/07/19 07:13:54;;;;;;;7.50;1.85;;;26.10;53.50;;;;;;5115745;27;20098;-65
2022/07/19 07:16:20;;;;;;;7.03;2.05;;;26.20;53.40;;;;;;5110648;27;20435;-65
2022/07/19 07:18:45;;;;;;;4.50;1.80;;;26.30;53.30;;;;;;5116566;28;20036;-65
2022/07/19 07:21:11;;;;;;;5.88;2.00;;;26.40;53.70;;;;;;5113386;27;20035;-64
2022/07/19 07:23:37;;;;;;;7.05;1.92;;;26.50;53.60;;;;;;5113458;28;20019;-65
2022/07/19 07:26:03;;;;;;;6.40;1.73;;;26.60;52.90;;;;;;5114893;27;20113;-65
2022/07/19 07:28:28;;;;;;;6.22;2.00;;;26.70;53.30;;;;;;5114675;27;20024;-65
2022/07/19 07:30:54;;;;;;;3.83;1.70;;;26.70;52.60;;;;;;5120535;27;20050;-65
2022/07/19 07:33:20;;;;;;;5.72;1.75;;;26.80;53.00;;;;;;5120233;27;20039;-65
2022/07/19 07:35:48;;;;;;;4.63;1.90;;;27.10;51.40;;;;;;5114941;27;20027;-65
2022/07/19 07:38:14;;;;;;;4.38;1.90;;;27.60;50.90;;;;;;5118791;27;20413;-65
2022/07/19 07:40:40;;;;;;;7.30;1.83;;;28.50;50.60;;;;;;5114463;27;20027;-65
2022/07/19 07:43:06;;;;;;;5.88;1.92;;;29.40;48.30;;;;;;5116930;28;20088;-65
2022/07/19 07:45:32;;;;;;;6.65;2.13;;;29.70;47.90;;;;;;5116408;27;20055;-65
2022/07/19 07:47:58;;;;;;;7.40;2.00;;;30.30;47.10;;;;;;5114207;27;20039;-65
2022/07/19 07:50:24;;;;;;;10.02;1.83;;;30.50;46.20;;;;;;5114076;27;20027;-65
2022/07/19 07:52:50;;;;;;;4.88;2.10;;;30.80;46.50;;;;;;5115585;28;20031;-65
2022/07/19 07:55:16;;;;;;;6.75;1.90;;;31.30;45.70;;;;;;5113901;27;20024;-65
2022/07/19 07:57:42;;;;;;;11.82;2.47;;;31.40;45.60;;;;;;5114502;27;20031;-65
2022/07/19 08:00:11;;;;;;;4.43;2.05;;;31.40;45.00;;;;;;5114974;27;20092;-65
2022/07/19 08:02:41;;;;;;;4.72;1.75;;;31.10;44.90;;;;;;5114836;27;20019;-65
2022/07/19 08:05:07;;;;;;;3.78;1.77;;;31.10;44.90;;;;;;5110165;27;20019;-65
2022/07/19 08:07:33;;;;;;;7.22;1.90;;;31.30;45.20;;;;;;5116110;27;20023;-65
2022/07/19 08:09:59;;;;;;;9.80;1.90;;;31.50;44.60;;;;;;5110366;28;20032;-72
2022/07/19 08:12:25;;;;;;;7.88;2.03;;;32.10;44.60;;;;;;5115724;27;20080;-65
2022/07/19 08:14:51;;;;;;;4.20;2.10;;;32.30;44.50;;;;;;5119702;27;20028;-65
2022/07/19 08:17:17;;;;;;;3.40;1.77;;;32.50;43.60;;;;;;5118586;27;20036;-65
2022/07/19 08:19:43;;;;;;;4.15;1.95;;;32.60;43.00;;;;;;5115297;27;20039;-65
2022/07/19 08:22:08;;;;;;;4.65;1.70;;;32.80;43.80;;;;;;5126921;27;20058;-65
2022/07/19 08:24:37;;;;;;;4.15;1.80;;;33.20;43.00;;;;;;5117695;27;20055;-65
2022/07/19 08:27:03;;;;;;;8.35;1.70;;;32.90;42.80;;;;;;5115100;28;20081;-65
2022/07/19 08:29:28;;;;;;;5.10;2.17;;;32.90;43.10;;;;;;5121958;27;20016;-65
2022/07/19 08:31:54;;;;;;;8.10;1.92;;;33.00;42.90;;;;;;5112258;28;20424;-65
2022/07/19 08:34:19;;;;;;;4.72;2.13;;;33.20;42.90;;;;;;5114768;28;20027;-65
2022/07/19 08:36:48;;;;;;;4.60;1.85;;;33.60;43.00;;;;;;5114562;28;20047;-63
2022/07/19 08:39:14;;;;;;;5.43;2.00;;;33.80;43.10;;;;;;5113248;28;20042;-63
2022/07/19 08:41:43;;;;;;;4.75;2.03;;;34.30;42.10;;;;;;5112100;28;20035;-63
2022/07/19 08:44:10;;;;;;;4.28;1.90;;;34.50;41.80;;;;;;5110682;28;20031;-65
2022/07/19 08:46:36;;;;;;;5.05;2.15;;;34.50;40.90;;;;;;5122254;28;20335;-66
2022/07/19 08:49:03;;;;;;;4.60;2.00;;;34.80;40.40;;;;;;5112476;28;20059;-65
2022/07/19 08:51:29;;;;;;;4.22;1.98;;;34.60;41.10;;;;;;5111672;28;20028;-66
2022/07/19 08:53:55;;;;;;;6.55;2.10;;;34.50;41.20;;;;;;5113322;28;20024;-64
2022/07/19 08:59:06;;;;;;;5.32;2.28;;;34.10;40.90;;;;;;5114163;28;20030;-65
2022/07/19 09:01:32;;;;;;;4.95;2.13;;;33.80;41.20;;;;;;5112115;28;20103;-64
2022/07/19 09:04:03;;;;;;;5.95;2.40;;;33.80;41.10;;;;;;5110053;28;20131;-65
2022/07/19 09:06:56;;;;;;;4.60;2.40;;;34.10;40.60;;;;;;5116491;28;20091;-65
2022/07/19 09:09:23;;;;;;;4.68;2.30;;;34.10;40.50;;;;;;5108145;28;20448;-66
2022/07/19 09:11:50;;;;;;;7.32;2.53;;;34.20;40.80;;;;;;5115169;28;20035;-65
2022/07/19 09:14:19;;;;;;;6.05;2.60;;;34.10;40.30;;;;;;5116834;28;20023;-65
2022/07/19 09:17:09;;;;;;;6.03;2.40;;;34.30;40.60;;;;;;5108305;28;20124;-64
2022/07/19 09:19:38;;;;;;;5.20;2.30;;;34.70;39.90;;;;;;5113491;28;20297;-65
2022/07/19 09:22:06;;;;;;;6.97;2.35;;;34.80;40.30;;;;;;5109109;28;20028;-65
2022/07/19 09:24:35;;;;;;;5.78;2.22;;;35.00;40.50;;;;;;5108871;28;20047;-64
2022/07/19 09:27:07;;;;;;;4.80;2.55;;;34.80;40.20;;;;;;5124451;27;20012;-67
2022/07/19 09:29:37;;;;;;;7.45;2.30;;;35.10;40.20;;;;;;5117763;27;20035;-65
2022/07/19 09:32:16;;;;;;;5.75;2.70;;;35.40;39.80;;;;;;5123681;27;20012;-64
2022/07/19 09:34:54;;;;;;;7.68;2.47;;;35.20;40.10;;;;;;5117834;27;20023;-65
2022/07/19 09:37:23;;;;;;;7.68;2.33;;;35.20;40.40;;;;;;5114919;27;20058;-65
2022/07/19 09:40:00;;;;;;;8.77;2.22;;;35.40;40.50;;;;;;5117355;27;20020;-65
2022/07/19 09:42:41;;;;;;;6.22;2.58;;;35.30;39.70;;;;;;5115641;27;20063;-65
2022/07/19 09:45:09;;;;;;;7.45;2.72;;;35.50;39.10;;;;;;5107978;27;20028;-65
2022/07/19 09:47:37;;;;;;;6.22;2.40;;;35.60;39.90;;;;;;5104198;28;20036;-66
2022/07/19 09:50:25;;;;;;;5.63;2.15;;;35.90;40.10;;;;;;5117184;28;20114;-66
2022/07/19 09:52:51;;;;;;;5.93;2.70;;;36.50;38.40;;;;;;5110112;28;20444;-69
2022/07/19 09:55:18;;;;;;;7.45;2.40;;;37.10;38.80;;;;;;5111304;27;20031;-64
2022/07/19 09:57:49;;;;;;;5.43;2.60;;;36.90;37.70;;;;;;5116295;27;21730;-66
2022/07/19 10:00:20;;;;;;;7.28;2.45;;;36.10;38.00;;;;;;5117495;27;20033;-66
2022/07/19 10:03:02;;;;;;;7.40;2.70;;;36.40;39.60;;;;;;5114694;28;20038;-67
2022/07/19 10:05:29;;;;;;;7.15;2.50;;;36.10;39.20;;;;;;5115796;27;20047;-67
2022/07/19 10:07:56;;;;;;;9.02;2.85;;;36.60;38.40;;;;;;5123891;27;20065;-67
2022/07/19 10:10:23;;;;;;;5.55;3.00;;;37.00;38.50;;;;;;5114826;28;20312;-66
2022/07/19 10:12:51;;;;;;;5.97;2.70;;;37.10;36.80;;;;;;5115714;28;20028;-66
2022/07/19 10:15:18;;;;;;;6.82;2.80;;;36.70;39.00;;;;;;5118449;27;20031;-66
2022/07/19 10:17:51;;;;;;;5.32;2.53;;;36.50;38.50;;;;;;5098468;28;20036;-67
2022/07/19 10:20:20;;;;;;;7.70;2.93;;;36.40;37.60;;;;;;5122753;27;20027;-65
2022/07/19 10:22:46;;;;;;;7.75;2.88;;;36.40;37.90;;;;;;5117940;27;20034;-65
2022/07/19 10:25:14;;;;;;;10.63;2.70;;;36.30;37.50;;;;;;5110182;27;20036;-66
2022/07/19 10:27:43;;;;;;;6.15;2.40;;;36.30;37.80;;;;;;5113704;27;20369;-64
2022/07/19 10:30:12;;;;;;;5.65;2.70;;;36.50;36.80;;;;;;5110119;27;20115;-66
2022/07/19 10:32:39;;;;;;;7.20;2.78;;;36.80;37.70;;;;;;5115955;27;20023;-66
2022/07/19 10:35:38;;;;;;;7.47;2.60;;;36.90;36.50;;;;;;5114886;27;20062;-66
2022/07/19 10:38:04;;;;;;;6.10;2.65;;;36.70;36.20;;;;;;5070264;28;20428;-66
2022/07/19 10:40:48;;;;;;;9.15;2.72;;;36.70;36.80;;;;;;5113295;27;20032;-66
2022/07/19 10:43:14;;;;;;;5.47;2.50;;;37.10;36.60;;;;;;5113640;27;20024;-66
2022/07/19 10:45:57;;;;;;;7.07;2.55;;;37.50;36.80;;;;;;5113522;27;20108;-65
2022/07/19 10:48:42;;;;;;;8.80;2.63;;;37.20;36.70;;;;;;5117375;27;20084;-66
2022/07/19 10:51:12;;;;;;;7.30;2.50;;;36.90;36.80;;;;;;5116035;28;20483;-66
2022/07/19 10:53:53;;;;;;;9.73;2.58;;;37.00;36.50;;;;;;5113648;27;20023;-65
2022/07/19 10:56:21;;;;;;;6.18;2.45;;;36.50;36.40;;;;;;5114493;27;20028;-66
2022/07/19 10:58:49;;;;;;;6.10;2.40;;;36.70;37.00;;;;;;5119479;27;20020;-66
2022/07/19 11:01:18;;;;;;;6.22;2.40;;;37.40;36.90;;;;;;5120748;27;20452;-65
2022/07/19 11:03:47;;;;;;;9.20;2.72;;;37.90;36.70;;;;;;5115372;27;20032;-66
2022/07/19 11:06:26;;;;;;;6.10;2.53;;;37.70;36.50;;;;;;5123661;27;20324;-66
2022/07/19 11:08:58;;;;;;;6.07;2.30;;;37.70;38.20;;;;;;5117402;27;20028;-66
2022/07/19 11:11:26;;;;;;;6.22;2.47;;;37.80;36.10;;;;;;5118435;27;20028;-66
2022/07/19 11:13:54;;;;;;;6.00;2.30;;;37.60;36.00;;;;;;5112800;27;20354;-66
2022/07/19 11:16:23;;;;;;;4.45;2.38;;;37.20;36.50;;;;;;5120629;27;20020;-66
2022/07/19 11:18:49;;;;;;;5.25;2.25;;;36.70;35.90;;;;;;5116721;27;20023;-67
2022/07/19 11:21:15;;;;;;;4.85;2.10;;;36.80;37.20;;;;;;5117868;27;20114;-67
2022/07/19 11:23:42;;;;;;;4.95;2.40;;;37.00;36.90;;;;;;5114738;27;20039;-66
2022/07/19 11:26:11;;;;;;;6.90;2.00;;;37.30;37.90;;;;;;5118566;27;20057;-66
2022/07/19 11:28:38;;;;;;;8.65;2.55;;;37.50;36.80;;;;;;5123009;27;20100;-67
2022/07/19 11:31:21;;;;;;;8.07;2.28;;;37.10;37.40;;;;;;5117285;27;20069;-66
2022/07/19 11:33:50;;;;;;;6.85;2.13;;;36.80;36.50;;;;;;5115432;27;20089;-66
2022/07/19 11:36:17;;;;;;;5.55;2.15;;;36.80;37.70;;;;;;5125102;27;20031;-65
2022/07/19 11:38:48;;;;;;;5.47;2.22;;;37.20;37.80;;;;;;5113434;27;20435;-66
2022/07/19 11:41:21;;;;;;;3.83;1.88;;;37.00;36.60;;;;;;5106037;27;20101;-66
2022/07/19 11:44:05;;;;;;;6.05;2.22;;;36.60;37.20;;;;;;5124963;27;20084;-66
2022/07/19 11:46:43;;;;;;;6.53;2.10;;;36.80;36.60;;;;;;5115348;28;20064;-67
2022/07/19 11:49:11;;;;;;;5.07;2.05;;;36.80;37.20;;;;;;5118795;27;20106;-66
2022/07/19 11:51:37;;;;;;;7.88;2.70;;;36.90;38.00;;;;;;5116121;27;20019;-66
2022/07/19 11:54:06;;;;;;;7.93;2.55;;;37.20;37.10;;;;;;5125656;27;20335;-65
2022/07/19 11:56:33;;;;;;;20.77;2.40;;;37.50;37.00;;;;;;5115284;27;20105;-67
2022/07/19 11:59:04;;;;;;;4.78;2.10;;;37.70;37.20;;;;;;5118953;27;20027;-66
2022/07/19 12:01:32;;;;;;;8.80;2.42;;;37.50;36.90;;;;;;5118379;27;20034;-67
2022/07/19 12:04:01;;;;;;;7.10;2.25;;;37.30;36.90;;;;;;5118730;27;20366;-66
2022/07/19 12:06:47;;;;;;;5.28;2.13;;;37.30;37.20;;;;;;5114459;27;20195;-67
2022/07/19 12:09:16;;;;;;;7.30;2.15;;;37.20;36.10;;;;;;5117498;27;20369;-66
2022/07/19 12:11:44;;;;;;;10.20;2.40;;;37.00;37.00;;;;;;5128711;27;20023;-66
2022/07/19 12:14:21;;;;;;;4.00;2.10;;;37.10;37.30;;;;;;5120601;27;20423;-67
2022/07/19 12:16:50;;;;;;;6.22;1.92;;;37.30;37.20;;;;;;5116540;27;20103;-66
2022/07/19 12:19:20;;;;;;;9.23;2.72;;;37.50;36.80;;;;;;5121148;27;20034;-67
2022/07/19 12:21:46;;;;;;;5.40;2.17;;;37.30;35.40;;;;;;5112195;28;20035;-67
2022/07/19 12:24:20;;;;;;;7.03;2.28;;;36.80;36.40;;;;;;5114313;27;20023;-66
2022/07/19 12:27:04;;;;;;;6.63;2.22;;;36.90;36.80;;;;;;5106562;28;20019;-67
2022/07/19 12:29:40;;;;;;;7.55;2.35;;;36.80;36.80;;;;;;5112512;28;20046;-66
2022/07/19 12:32:11;;;;;;;5.93;2.00;;;37.00;38.00;;;;;;5111788;28;20035;-67
2022/07/19 12:34:57;;;;;;;6.03;1.90;;;37.70;37.90;;;;;;5101298;28;20442;-66
2022/07/19 12:37:35;;;;;;;5.03;2.05;;;38.10;36.40;;;;;;5109614;28;20047;-65
2022/07/19 12:40:07;;;;;;;5.35;2.10;;;38.10;38.10;;;;;;5109563;28;20035;-66
2022/07/19 12:42:40;;;;;;;5.00;2.35;;;38.50;36.40;;;;;;5114209;28;20046;-65
2022/07/19 12:45:08;;;;;;;;;;;38.20;36.50;;;;;;5115130;28;20095;-64
2022/07/19 12:47:37;;;;;;;8.18;2.72;;;38.10;36.40;;;;;;5116607;28;19915;-64
2022/07/19 12:50:03;;;;;;;8.25;2.35;;;38.30;36.90;;;;;;5116271;28;20031;-68
2022/07/19 12:52:30;;;;;;;7.47;2.30;;;38.20;38.00;;;;;;5105972;28;20100;-64
2022/07/19 12:54:56;;;;;;;6.82;2.88;;;38.50;35.70;;;;;;5111730;28;20019;-64